sensor_id;sensor_type;location;lat;lon;timestamp;temperature;humidity
59162;DHT22;44942;48.936;8.260;2023-08-01T00:02:20;26.10;55.10
59162;DHT22;44942;48.936;8.260;2023-08-01T00:07:20;26.10;55.20
59162;DHT22;44942;48.936;8.260;2023-08-01T00:12:21;26.10;55.20
59162;DHT22;44942;48.936;8.260;2023-08-01T00:17:22;26.10;55.20
59162;DHT22;44942;48.936;8.260;2023-08-01T00:22:22;26.10;55.20
59162;DHT22;44942;48.936;8.260;2023-08-01T00:27:23;26.10;55.20
59162;DHT22;44942;48.936;8.260;2023-08-01T00:32:24;26.10;55.30
59162;DHT22;44942;48.936;8.260;2023-08-01T00:37:24;26.10;55.30
59162;DHT22;44942;48.936;8.260;2023-08-01T00:42:25;26.10;55.30
59162;DHT22;44942;48.936;8.260;2023-08-01T00:47:25;26.10;55.30
59162;DHT22;44942;48.936;8.260;2023-08-01T00:52:29;26.10;55.40
59162;DHT22;44942;48.936;8.260;2023-08-01T00:57:30;26.10;55.30
59162;DHT22;44942;48.936;8.260;2023-08-01T01:02:30;26.10;55.40
59162;DHT22;44942;48.936;8.260;2023-08-01T01:07:31;26.10;55.30
59162;DHT22;44942;48.936;8.260;2023-08-01T01:12:31;26.10;55.30
59162;DHT22;44942;48.936;8.260;2023-08-01T01:17:32;26.10;55.40
59162;DHT22;44942;48.936;8.260;2023-08-01T01:22:32;26.10;55.40
59162;DHT22;44942;48.936;8.260;2023-08-01T01:27:35;26.10;55.40
59162;DHT22;44942;48.936;8.260;2023-08-01T01:32:36;26.10;55.40
59162;DHT22;44942;48.936;8.260;2023-08-01T01:37:36;26.10;55.40
59162;DHT22;44942;48.936;8.260;2023-08-01T01:42:37;26.10;55.40
59162;DHT22;44942;48.936;8.260;2023-08-01T01:47:37;26.10;55.40
59162;DHT22;44942;48.936;8.260;2023-08-01T01:52:38;26.10;55.50
59162;DHT22;44942;48.936;8.260;2023-08-01T01:57:38;26.10;55.50
59162;DHT22;44942;48.936;8.260;2023-08-01T02:02:39;26.10;55.60
59162;DHT22;44942;48.936;8.260;2023-08-01T02:07:39;26.00;55.50
59162;DHT22;44942;48.936;8.260;2023-08-01T02:12:40;26.00;55.60
59162;DHT22;44942;48.936;8.260;2023-08-01T02:17:40;26.00;55.50
59162;DHT22;44942;48.936;8.260;2023-08-01T02:22:41;26.00;55.60
59162;DHT22;44942;48.936;8.260;2023-08-01T02:27:41;26.10;55.60
59162;DHT22;44942;48.936;8.260;2023-08-01T02:32:42;26.10;55.60
59162;DHT22;44942;48.936;8.260;2023-08-01T02:37:42;26.00;55.60
59162;DHT22;44942;48.936;8.260;2023-08-01T02:42:43;26.10;55.60
59162;DHT22;44942;48.936;8.260;2023-08-01T02:47:43;26.00;55.60
59162;DHT22;44942;48.936;8.260;2023-08-01T02:52:44;26.10;55.60
59162;DHT22;44942;48.936;8.260;2023-08-01T02:57:44;26.00;55.60
59162;DHT22;44942;48.936;8.260;2023-08-01T03:02:45;26.10;55.60
59162;DHT22;44942;48.936;8.260;2023-08-01T03:07:46;26.10;55.60
59162;DHT22;44942;48.936;8.260;2023-08-01T03:12:46;26.10;55.60
59162;DHT22;44942;48.936;8.260;2023-08-01T03:17:46;26.00;55.60
59162;DHT22;44942;48.936;8.260;2023-08-01T03:22:47;26.00;55.60
59162;DHT22;44942;48.936;8.260;2023-08-01T03:27:47;26.00;55.60
59162;DHT22;44942;48.936;8.260;2023-08-01T03:32:48;26.00;55.60
59162;DHT22;44942;48.936;8.260;2023-08-01T03:37:48;26.00;55.60
59162;DHT22;44942;48.936;8.260;2023-08-01T03:42:49;26.00;55.70
59162;DHT22;44942;48.936;8.260;2023-08-01T03:47:49;26.00;55.80
59162;DHT22;44942;48.936;8.260;2023-08-01T03:52:50;26.00;55.80
59162;DHT22;44942;48.936;8.260;2023-08-01T03:57:51;26.00;55.70
59162;DHT22;44942;48.936;8.260;2023-08-01T04:02:52;26.00;55.60
59162;DHT22;44942;48.936;8.260;2023-08-01T04:07:52;26.00;55.70
59162;DHT22;44942;48.936;8.260;2023-08-01T04:12:55;26.00;55.70
59162;DHT22;44942;48.936;8.260;2023-08-01T04:17:55;26.00;55.60
59162;DHT22;44942;48.936;8.260;2023-08-01T04:22:55;26.00;55.60
59162;DHT22;44942;48.936;8.260;2023-08-01T04:27:56;26.00;55.70
59162;DHT22;44942;48.936;8.260;2023-08-01T04:32:57;26.00;55.60
59162;DHT22;44942;48.936;8.260;2023-08-01T04:37:57;26.00;55.70
59162;DHT22;44942;48.936;8.260;2023-08-01T04:42:57;26.00;55.70
59162;DHT22;44942;48.936;8.260;2023-08-01T04:47:58;26.00;55.70
59162;DHT22;44942;48.936;8.260;2023-08-01T04:52:58;26.00;55.70
59162;DHT22;44942;48.936;8.260;2023-08-01T04:57:59;26.00;55.70
59162;DHT22;44942;48.936;8.260;2023-08-01T05:02:59;26.00;55.80
59162;DHT22;44942;48.936;8.260;2023-08-01T05:08:00;25.90;55.70
59162;DHT22;44942;48.936;8.260;2023-08-01T05:13:00;25.90;55.70
59162;DHT22;44942;48.936;8.260;2023-08-01T05:18:01;25.90;55.70
59162;DHT22;44942;48.936;8.260;2023-08-01T05:23:01;25.90;55.80
59162;DHT22;44942;48.936;8.260;2023-08-01T05:28:02;26.00;55.90
59162;DHT22;44942;48.936;8.260;2023-08-01T05:33:02;26.00;55.80
59162;DHT22;44942;48.936;8.260;2023-08-01T05:38:03;26.00;55.80
59162;DHT22;44942;48.936;8.260;2023-08-01T05:43:03;26.00;55.80
59162;DHT22;44942;48.936;8.260;2023-08-01T05:48:05;26.00;55.80
59162;DHT22;44942;48.936;8.260;2023-08-01T05:53:05;25.90;55.70
59162;DHT22;44942;48.936;8.260;2023-08-01T05:58:07;26.00;55.80
59162;DHT22;44942;48.936;8.260;2023-08-01T06:03:08;26.00;55.80
59162;DHT22;44942;48.936;8.260;2023-08-01T06:08:08;26.00;55.80
59162;DHT22;44942;48.936;8.260;2023-08-01T06:13:09;26.00;55.80
59162;DHT22;44942;48.936;8.260;2023-08-01T06:18:09;25.90;55.80
59162;DHT22;44942;48.936;8.260;2023-08-01T06:23:11;25.90;55.80
59162;DHT22;44942;48.936;8.260;2023-08-01T06:28:12;25.90;55.80
59162;DHT22;44942;48.936;8.260;2023-08-01T06:33:12;25.90;56.00
59162;DHT22;44942;48.936;8.260;2023-08-01T06:38:13;25.90;56.00
59162;DHT22;44942;48.936;8.260;2023-08-01T06:43:13;25.90;56.00
59162;DHT22;44942;48.936;8.260;2023-08-01T06:48:14;25.80;55.90
59162;DHT22;44942;48.936;8.260;2023-08-01T06:53:14;25.80;56.00
59162;DHT22;44942;48.936;8.260;2023-08-01T06:58:15;25.80;56.00
59162;DHT22;44942;48.936;8.260;2023-08-01T07:03:15;25.80;56.00
59162;DHT22;44942;48.936;8.260;2023-08-01T07:08:16;25.80;56.00
59162;DHT22;44942;48.936;8.260;2023-08-01T07:13:16;25.80;56.00
59162;DHT22;44942;48.936;8.260;2023-08-01T07:18:19;25.80;56.00
59162;DHT22;44942;48.936;8.260;2023-08-01T07:23:20;25.80;56.20
59162;DHT22;44942;48.936;8.260;2023-08-01T07:28:20;25.80;56.20
59162;DHT22;44942;48.936;8.260;2023-08-01T07:33:21;25.80;56.20
59162;DHT22;44942;48.936;8.260;2023-08-01T07:38:21;25.80;56.20
59162;DHT22;44942;48.936;8.260;2023-08-01T07:43:22;25.70;56.20
59162;DHT22;44942;48.936;8.260;2023-08-01T07:48:23;25.70;56.20
59162;DHT22;44942;48.936;8.260;2023-08-01T07:53:24;25.70;56.20
59162;DHT22;44942;48.936;8.260;2023-08-01T07:58:24;25.70;56.20
59162;DHT22;44942;48.936;8.260;2023-08-01T08:03:25;25.60;56.20
59162;DHT22;44942;48.936;8.260;2023-08-01T08:08:25;25.70;56.30
59162;DHT22;44942;48.936;8.260;2023-08-01T08:13:27;25.70;56.40
59162;DHT22;44942;48.936;8.260;2023-08-01T08:18:27;25.70;56.40
59162;DHT22;44942;48.936;8.260;2023-08-01T08:23:28;25.70;56.50
59162;DHT22;44942;48.936;8.260;2023-08-01T08:28:29;25.70;56.60
59162;DHT22;44942;48.936;8.260;2023-08-01T08:33:30;25.60;56.60
59162;DHT22;44942;48.936;8.260;2023-08-01T08:38:30;25.60;56.60
59162;DHT22;44942;48.936;8.260;2023-08-01T08:43:31;25.60;56.70
59162;DHT22;44942;48.936;8.260;2023-08-01T08:48:32;25.60;56.70
59162;DHT22;44942;48.936;8.260;2023-08-01T08:53:33;25.60;56.70
59162;DHT22;44942;48.936;8.260;2023-08-01T08:58:35;25.60;56.80
59162;DHT22;44942;48.936;8.260;2023-08-01T09:03:36;25.60;56.80
59162;DHT22;44942;48.936;8.260;2023-08-01T09:08:36;25.60;56.80
59162;DHT22;44942;48.936;8.260;2023-08-01T09:13:39;25.60;56.90
59162;DHT22;44942;48.936;8.260;2023-08-01T09:18:49;25.60;56.90
59162;DHT22;44942;48.936;8.260;2023-08-01T09:23:50;25.60;57.60
59162;DHT22;44942;48.936;8.260;2023-08-01T09:28:58;25.60;57.00
59162;DHT22;44942;48.936;8.260;2023-08-01T09:33:59;25.60;57.00
59162;DHT22;44942;48.936;8.260;2023-08-01T09:39:00;25.60;57.00
59162;DHT22;44942;48.936;8.260;2023-08-01T09:44:00;25.60;57.10
59162;DHT22;44942;48.936;8.260;2023-08-01T09:49:08;25.60;57.10
59162;DHT22;44942;48.936;8.260;2023-08-01T09:54:10;25.60;57.10
59162;DHT22;44942;48.936;8.260;2023-08-01T09:59:10;25.60;57.00
59162;DHT22;44942;48.936;8.260;2023-08-01T10:04:11;25.60;57.00
59162;DHT22;44942;48.936;8.260;2023-08-01T10:09:12;25.60;57.00
59162;DHT22;44942;48.936;8.260;2023-08-01T10:14:13;25.60;57.00
59162;DHT22;44942;48.936;8.260;2023-08-01T10:19:14;25.60;56.90
59162;DHT22;44942;48.936;8.260;2023-08-01T10:24:14;25.60;56.80
59162;DHT22;44942;48.936;8.260;2023-08-01T10:29:15;25.60;56.70
59162;DHT22;44942;48.936;8.260;2023-08-01T10:34:16;25.60;56.60
59162;DHT22;44942;48.936;8.260;2023-08-01T10:39:20;25.60;56.60
59162;DHT22;44942;48.936;8.260;2023-08-01T10:44:21;25.60;56.50
59162;DHT22;44942;48.936;8.260;2023-08-01T10:54:34;25.60;56.20
59162;DHT22;44942;48.936;8.260;2023-08-01T10:59:37;25.60;56.00
59162;DHT22;44942;48.936;8.260;2023-08-01T11:04:39;25.60;56.00
59162;DHT22;44942;48.936;8.260;2023-08-01T11:09:40;25.60;55.80
59162;DHT22;44942;48.936;8.260;2023-08-01T11:14:40;25.60;55.70
59162;DHT22;44942;48.936;8.260;2023-08-01T11:19:40;25.60;55.60
59162;DHT22;44942;48.936;8.260;2023-08-01T11:24:41;25.60;55.60
59162;DHT22;44942;48.936;8.260;2023-08-01T11:29:49;25.60;55.50
59162;DHT22;44942;48.936;8.260;2023-08-01T11:34:50;25.60;55.30
59162;DHT22;44942;48.936;8.260;2023-08-01T11:39:50;25.60;55.90
59162;DHT22;44942;48.936;8.260;2023-08-01T11:44:51;25.60;55.10
59162;DHT22;44942;48.936;8.260;2023-08-01T11:49:52;25.60;54.90
59162;DHT22;44942;48.936;8.260;2023-08-01T11:54:52;25.60;54.80
59162;DHT22;44942;48.936;8.260;2023-08-01T11:59:55;25.60;54.70
59162;DHT22;44942;48.936;8.260;2023-08-01T12:04:56;25.60;54.70
59162;DHT22;44942;48.936;8.260;2023-08-01T12:09:57;25.60;54.70
59162;DHT22;44942;48.936;8.260;2023-08-01T12:14:58;25.60;54.60
59162;DHT22;44942;48.936;8.260;2023-08-01T12:19:58;25.60;54.60
59162;DHT22;44942;48.936;8.260;2023-08-01T12:24:59;25.60;54.50
59162;DHT22;44942;48.936;8.260;2023-08-01T12:29:59;25.60;54.40
59162;DHT22;44942;48.936;8.260;2023-08-01T12:35:00;25.60;54.30
59162;DHT22;44942;48.936;8.260;2023-08-01T12:40:00;25.60;54.20
59162;DHT22;44942;48.936;8.260;2023-08-01T12:45:00;25.60;54.10
59162;DHT22;44942;48.936;8.260;2023-08-01T12:50:02;25.60;54.10
59162;DHT22;44942;48.936;8.260;2023-08-01T12:55:02;25.60;53.90
59162;DHT22;44942;48.936;8.260;2023-08-01T13:00:03;25.60;53.80
59162;DHT22;44942;48.936;8.260;2023-08-01T13:05:04;25.60;53.70
59162;DHT22;44942;48.936;8.260;2023-08-01T13:10:05;25.60;53.60
59162;DHT22;44942;48.936;8.260;2023-08-01T13:15:06;25.60;53.50
59162;DHT22;44942;48.936;8.260;2023-08-01T13:20:06;25.60;53.30
59162;DHT22;44942;48.936;8.260;2023-08-01T13:25:08;25.60;53.20
59162;DHT22;44942;48.936;8.260;2023-08-01T13:30:08;25.60;53.10
59162;DHT22;44942;48.936;8.260;2023-08-01T13:35:09;25.60;53.00
59162;DHT22;44942;48.936;8.260;2023-08-01T13:40:10;25.60;52.90
59162;DHT22;44942;48.936;8.260;2023-08-01T13:45:12;25.60;52.80
59162;DHT22;44942;48.936;8.260;2023-08-01T13:50:12;25.60;52.70
59162;DHT22;44942;48.936;8.260;2023-08-01T13:55:13;25.60;52.70
59162;DHT22;44942;48.936;8.260;2023-08-01T14:00:14;25.60;52.60
59162;DHT22;44942;48.936;8.260;2023-08-01T14:05:15;25.60;52.60
59162;DHT22;44942;48.936;8.260;2023-08-01T14:10:15;25.60;52.50
59162;DHT22;44942;48.936;8.260;2023-08-01T14:15:16;25.60;52.40
59162;DHT22;44942;48.936;8.260;2023-08-01T14:20:16;25.60;52.30
59162;DHT22;44942;48.936;8.260;2023-08-01T14:25:17;25.60;52.20
59162;DHT22;44942;48.936;8.260;2023-08-01T14:30:18;25.60;52.20
59162;DHT22;44942;48.936;8.260;2023-08-01T14:35:18;25.60;52.10
59162;DHT22;44942;48.936;8.260;2023-08-01T14:40:18;25.60;52.00
59162;DHT22;44942;48.936;8.260;2023-08-01T14:45:19;25.60;52.00
59162;DHT22;44942;48.936;8.260;2023-08-01T14:50:19;25.60;51.90
59162;DHT22;44942;48.936;8.260;2023-08-01T14:55:20;25.60;51.80
59162;DHT22;44942;48.936;8.260;2023-08-01T15:00:21;25.60;52.00
59162;DHT22;44942;48.936;8.260;2023-08-01T15:05:21;25.60;52.00
59162;DHT22;44942;48.936;8.260;2023-08-01T15:10:24;25.60;51.90
59162;DHT22;44942;48.936;8.260;2023-08-01T15:15:24;25.60;51.90
59162;DHT22;44942;48.936;8.260;2023-08-01T15:20:25;25.60;51.80
59162;DHT22;44942;48.936;8.260;2023-08-01T15:25:25;25.60;51.70
59162;DHT22;44942;48.936;8.260;2023-08-01T15:30:26;25.60;51.60
59162;DHT22;44942;48.936;8.260;2023-08-01T15:35:29;25.70;51.60
59162;DHT22;44942;48.936;8.260;2023-08-01T15:40:30;25.60;51.30
59162;DHT22;44942;48.936;8.260;2023-08-01T15:45:31;25.70;51.40
59162;DHT22;44942;48.936;8.260;2023-08-01T15:50:31;25.70;51.10
59162;DHT22;44942;48.936;8.260;2023-08-01T15:55:32;25.70;51.10
59162;DHT22;44942;48.936;8.260;2023-08-01T16:00:32;25.70;51.00
59162;DHT22;44942;48.936;8.260;2023-08-01T16:05:33;25.70;50.90
59162;DHT22;44942;48.936;8.260;2023-08-01T16:10:33;25.80;50.90
59162;DHT22;44942;48.936;8.260;2023-08-01T16:15:34;25.80;50.90
59162;DHT22;44942;48.936;8.260;2023-08-01T16:20:34;25.80;50.90
59162;DHT22;44942;48.936;8.260;2023-08-01T16:25:35;25.80;50.70
59162;DHT22;44942;48.936;8.260;2023-08-01T16:30:36;25.80;50.60
59162;DHT22;44942;48.936;8.260;2023-08-01T16:35:37;25.80;50.50
59162;DHT22;44942;48.936;8.260;2023-08-01T16:40:38;25.90;50.60
59162;DHT22;44942;48.936;8.260;2023-08-01T16:45:38;25.80;50.30
59162;DHT22;44942;48.936;8.260;2023-08-01T16:50:39;25.90;50.30
59162;DHT22;44942;48.936;8.260;2023-08-01T16:55:39;25.90;50.30
59162;DHT22;44942;48.936;8.260;2023-08-01T17:00:40;25.90;50.30
59162;DHT22;44942;48.936;8.260;2023-08-01T17:05:40;25.90;50.30
59162;DHT22;44942;48.936;8.260;2023-08-01T17:10:41;25.90;50.20
59162;DHT22;44942;48.936;8.260;2023-08-01T17:15:41;25.90;50.20
59162;DHT22;44942;48.936;8.260;2023-08-01T17:20:42;25.90;50.20
59162;DHT22;44942;48.936;8.260;2023-08-01T17:25:42;25.90;50.20
59162;DHT22;44942;48.936;8.260;2023-08-01T17:30:43;25.90;50.20
59162;DHT22;44942;48.936;8.260;2023-08-01T17:35:43;25.90;50.20
59162;DHT22;44942;48.936;8.260;2023-08-01T17:40:44;25.90;50.40
59162;DHT22;44942;48.936;8.260;2023-08-01T17:45:45;25.90;50.30
59162;DHT22;44942;48.936;8.260;2023-08-01T17:50:45;25.80;50.30
59162;DHT22;44942;48.936;8.260;2023-08-01T17:55:46;25.80;50.30
59162;DHT22;44942;48.936;8.260;2023-08-01T18:00:46;25.90;50.40
59162;DHT22;44942;48.936;8.260;2023-08-01T18:05:47;25.80;50.20
59162;DHT22;44942;48.936;8.260;2023-08-01T18:10:47;25.80;50.20
59162;DHT22;44942;48.936;8.260;2023-08-01T18:15:48;25.80;50.30
59162;DHT22;44942;48.936;8.260;2023-08-01T18:20:58;25.80;50.20
59162;DHT22;44942;48.936;8.260;2023-08-01T18:26:01;25.80;50.30
59162;DHT22;44942;48.936;8.260;2023-08-01T18:31:08;25.80;51.00
59162;DHT22;44942;48.936;8.260;2023-08-01T18:36:12;25.80;50.20
59162;DHT22;44942;48.936;8.260;2023-08-01T18:41:13;25.80;50.20
59162;DHT22;44942;48.936;8.260;2023-08-01T18:46:13;25.80;50.20
59162;DHT22;44942;48.936;8.260;2023-08-01T18:51:15;25.80;50.20
59162;DHT22;44942;48.936;8.260;2023-08-01T18:56:15;25.80;50.10
59162;DHT22;44942;48.936;8.260;2023-08-01T19:01:20;25.80;50.10
59162;DHT22;44942;48.936;8.260;2023-08-01T19:06:25;25.80;50.20
59162;DHT22;44942;48.936;8.260;2023-08-01T19:11:26;25.70;50.00
59162;DHT22;44942;48.936;8.260;2023-08-01T19:16:30;25.70;50.10
59162;DHT22;44942;48.936;8.260;2023-08-01T19:21:30;25.80;50.10
59162;DHT22;44942;48.936;8.260;2023-08-01T19:26:31;25.70;50.00
59162;DHT22;44942;48.936;8.260;2023-08-01T19:31:32;25.70;50.10
59162;DHT22;44942;48.936;8.260;2023-08-01T19:36:32;25.70;50.10
59162;DHT22;44942;48.936;8.260;2023-08-01T19:41:34;25.70;50.10
59162;DHT22;44942;48.936;8.260;2023-08-01T19:46:34;25.70;50.10
59162;DHT22;44942;48.936;8.260;2023-08-01T19:51:35;25.70;50.10
59162;DHT22;44942;48.936;8.260;2023-08-01T19:56:35;25.70;50.10
59162;DHT22;44942;48.936;8.260;2023-08-01T20:01:36;25.70;50.00
59162;DHT22;44942;48.936;8.260;2023-08-01T20:06:36;25.70;49.90
59162;DHT22;44942;48.936;8.260;2023-08-01T20:11:37;25.70;49.80
59162;DHT22;44942;48.936;8.260;2023-08-01T20:16:37;25.70;49.70
59162;DHT22;44942;48.936;8.260;2023-08-01T20:21:38;25.70;49.70
59162;DHT22;44942;48.936;8.260;2023-08-01T20:26:38;25.70;49.60
59162;DHT22;44942;48.936;8.260;2023-08-01T20:31:39;25.70;49.60
59162;DHT22;44942;48.936;8.260;2023-08-01T20:36:40;25.70;49.50
59162;DHT22;44942;48.936;8.260;2023-08-01T20:41:40;25.70;49.50
59162;DHT22;44942;48.936;8.260;2023-08-01T20:46:42;25.70;49.70
59162;DHT22;44942;48.936;8.260;2023-08-01T20:51:42;25.70;49.50
59162;DHT22;44942;48.936;8.260;2023-08-01T20:56:44;25.70;49.50
59162;DHT22;44942;48.936;8.260;2023-08-01T21:01:44;25.70;49.50
59162;DHT22;44942;48.936;8.260;2023-08-01T21:06:45;25.70;49.80
59162;DHT22;44942;48.936;8.260;2023-08-01T21:11:45;25.70;49.50
59162;DHT22;44942;48.936;8.260;2023-08-01T21:16:46;25.70;49.50
59162;DHT22;44942;48.936;8.260;2023-08-01T21:21:46;25.70;49.40
59162;DHT22;44942;48.936;8.260;2023-08-01T21:26:47;25.70;49.40
59162;DHT22;44942;48.936;8.260;2023-08-01T21:31:47;25.70;49.40
59162;DHT22;44942;48.936;8.260;2023-08-01T21:36:49;25.70;49.40
59162;DHT22;44942;48.936;8.260;2023-08-01T21:41:49;25.70;49.40
59162;DHT22;44942;48.936;8.260;2023-08-01T21:46:50;25.70;49.50
59162;DHT22;44942;48.936;8.260;2023-08-01T21:51:50;25.70;49.40
59162;DHT22;44942;48.936;8.260;2023-08-01T21:56:51;25.70;49.40
59162;DHT22;44942;48.936;8.260;2023-08-01T22:01:51;25.70;49.40
59162;DHT22;44942;48.936;8.260;2023-08-01T22:06:52;25.70;49.40
59162;DHT22;44942;48.936;8.260;2023-08-01T22:11:52;25.70;49.40
59162;DHT22;44942;48.936;8.260;2023-08-01T22:16:53;25.70;49.40
59162;DHT22;44942;48.936;8.260;2023-08-01T22:21:53;25.70;49.40
59162;DHT22;44942;48.936;8.260;2023-08-01T22:26:54;25.70;49.40
59162;DHT22;44942;48.936;8.260;2023-08-01T22:31:54;25.60;49.30
59162;DHT22;44942;48.936;8.260;2023-08-01T22:36:55;25.70;49.40
59162;DHT22;44942;48.936;8.260;2023-08-01T22:41:55;25.70;49.40
59162;DHT22;44942;48.936;8.260;2023-08-01T22:46:56;25.60;49.30
59162;DHT22;44942;48.936;8.260;2023-08-01T22:51:56;25.60;49.40
59162;DHT22;44942;48.936;8.260;2023-08-01T22:56:57;25.70;49.40
59162;DHT22;44942;48.936;8.260;2023-08-01T23:01:58;25.60;49.40
59162;DHT22;44942;48.936;8.260;2023-08-01T23:06:59;25.60;49.40
59162;DHT22;44942;48.936;8.260;2023-08-01T23:11:59;25.60;49.30
59162;DHT22;44942;48.936;8.260;2023-08-01T23:17:00;25.60;49.30
59162;DHT22;44942;48.936;8.260;2023-08-01T23:22:00;25.60;49.40
59162;DHT22;44942;48.936;8.260;2023-08-01T23:27:01;25.60;49.40
59162;DHT22;44942;48.936;8.260;2023-08-01T23:32:01;25.60;49.40
59162;DHT22;44942;48.936;8.260;2023-08-01T23:37:02;25.60;49.40
59162;DHT22;44942;48.936;8.260;2023-08-01T23:42:02;25.60;49.40
59162;DHT22;44942;48.936;8.260;2023-08-01T23:47:03;25.60;49.40
59162;DHT22;44942;48.936;8.260;2023-08-01T23:52:03;25.60;49.40
59162;DHT22;44942;48.936;8.260;2023-08-01T23:57:04;25.60;49.50
